Time;durP1;ratioP1;P1;durP2;ratioP2;P2;SDS_P1;SDS_P2;PMS_P1;PMS_P2;Temp;Humidity;BMP_temperature;BMP_pressure;BME280_temperature;BME280_humidity;BME280_pressure;Samples;Min_cycle;Max_cycle;Signal;HPM_P1;HPM_P2
2022/04/14 00:03:17;;;;;;;41.98;30.10;;;;;;;10.10;75.56;100456.75;2911061;81;21061;-83
2022/04/14 00:07:18;;;;;;;51.20;31.65;;;;;;;10.13;75.41;100459.17;2841915;82;21069;-83
2022/04/14 00:11:20;;;;;;;39.73;29.12;;;;;;;10.12;75.44;100456.15;2946028;80;21026;-83
2022/04/14 00:15:21;;;;;;;42.60;30.02;;;;;;;10.12;75.47;100453.95;2920305;80;21054;-83
2022/04/14 00:19:22;;;;;;;44.03;29.45;;;;;;;10.14;75.23;100454.72;2854983;82;21046;-83
2022/04/14 00:23:23;;;;;;;51.58;32.90;;;;;;;10.12;75.17;100442.86;2897875;81;21481;-83
2022/04/14 00:27:24;;;;;;;45.98;33.88;;;;;;;10.16;74.82;100448.79;2855278;82;21022;-83
2022/04/14 00:31:25;;;;;;;43.17;30.55;;;;;;;10.12;74.79;100449.50;2879781;81;21062;-83
2022/04/14 00:35:26;;;;;;;43.70;29.75;;;;;;;10.08;74.86;100459.16;2870804;81;21015;-83
2022/04/14 00:39:27;;;;;;;51.60;31.05;;;;;;;10.07;75.00;100454.80;2849044;81;21628;-83
2022/04/14 00:43:31;;;;;;;49.15;32.30;;;;;;;10.06;74.95;100459.76;2862266;81;21014;-83
2022/04/14 00:47:35;;;;;;;45.28;30.27;;;;;;;10.04;74.95;100460.36;2857151;81;21007;-83
2022/04/14 00:51:36;;;;;;;45.88;32.00;;;;;;;10.04;74.85;100461.69;2871757;81;21060;-83
2022/04/14 00:55:37;;;;;;;44.13;31.15;;;;;;;9.99;75.02;100462.90;2864403;81;22362;-83
2022/04/14 00:59:38;;;;;;;44.77;32.28;;;;;;;9.98;74.87;100460.34;2863239;81;20991;-83
2022/04/14 01:03:42;;;;;;;44.35;30.60;;;;;;;9.94;75.03;100468.19;2862297;81;21297;-83
2022/04/14 01:07:45;;;;;;;49.88;30.92;;;;;;;9.86;75.03;100470.97;2851456;81;21565;-83
2022/04/14 01:11:55;;;;;;;45.85;30.08;;;;;;;9.81;75.17;100459.81;2852355;81;21040;-83
2022/04/14 01:15:58;;;;;;;44.70;30.10;;;;;;;9.76;75.34;100459.33;2849959;82;21075;-83
2022/04/14 01:20:00;;;;;;;40.12;31.05;;;;;;;9.78;75.03;100457.40;2871886;81;20999;-83
2022/04/14 01:24:02;;;;;;;44.33;31.73;;;;;;;9.74;75.24;100452.45;2855525;81;21070;-83
2022/04/14 01:28:06;;;;;;;56.40;29.80;;;;;;;9.71;75.19;100460.16;2880324;81;21033;-83
2022/04/14 01:32:08;;;;;;;48.05;30.92;;;;;;;9.65;75.20;100454.00;2880464;81;21065;-83
2022/04/14 01:36:09;;;;;;;42.35;28.83;;;;;;;9.53;75.64;100438.48;2875891;81;21027;-83
2022/04/14 01:40:11;;;;;;;36.98;27.80;;;;;;;9.44;75.79;100445.36;2889925;82;21073;-83
2022/04/14 01:44:12;;;;;;;37.38;28.20;;;;;;;9.20;77.09;100439.55;2844537;82;21618;-83
2022/04/14 01:48:13;;;;;;;46.33;30.43;;;;;;;8.89;78.65;100441.81;2846421;83;21551;-83
2022/04/14 01:52:15;;;;;;;49.50;31.80;;;;;;;8.88;78.76;100445.42;2883883;80;21053;-83
2022/04/14 01:56:18;;;;;;;37.67;29.32;;;;;;;8.78;79.20;100441.73;2897723;81;21094;-83
2022/04/14 02:00:19;;;;;;;46.45;32.40;;;;;;;8.58;80.07;100441.34;2873620;81;21554;-82
2022/04/14 02:04:20;;;;;;;42.50;30.20;;;;;;;8.25;81.40;100443.59;2894204;82;21055;-83
2022/04/14 02:08:21;;;;;;;42.48;33.90;;;;;;;8.00;82.89;100434.70;2892586;81;21067;-84
2022/04/14 02:12:24;;;;;;;44.42;31.93;;;;;;;7.92;83.65;100434.85;2874265;82;21643;-83
2022/04/14 02:16:25;;;;;;;44.85;31.95;;;;;;;7.78;84.50;100432.66;2868998;80;20992;-83
2022/04/14 02:20:26;;;;;;;38.35;28.12;;;;;;;7.72;84.61;100437.05;2868397;82;21011;-83
2022/04/14 02:24:28;;;;;;;50.03;30.55;;;;;;;7.77;84.45;100434.94;2867755;82;21711;-83
2022/04/14 02:28:29;;;;;;;50.10;33.63;;;;;;;7.77;84.29;100422.19;2887191;81;21109;-83
2022/04/14 02:32:30;;;;;;;51.48;33.53;;;;;;;7.78;84.28;100430.01;2870698;82;21050;-84
2022/04/14 02:36:31;;;;;;;43.90;32.17;;;;;;;7.89;83.91;100415.20;2915150;80;20975;-83
2022/04/14 02:40:32;;;;;;;53.08;34.48;;;;;;;7.85;83.96;100416.70;2912539;80;21014;-83
2022/04/14 02:44:33;;;;;;;49.40;31.00;;;;;;;7.82;83.93;100418.73;2896861;80;21019;-83
2022/04/14 02:48:34;;;;;;;40.23;27.85;;;;;;;7.82;84.01;100420.89;2844493;82;20977;-83
2022/04/14 02:52:36;;;;;;;37.90;28.62;;;;;;;7.88;83.83;100418.80;2822486;82;21083;-83
2022/04/14 02:56:37;;;;;;;40.05;28.52;;;;;;;7.82;84.04;100412.95;2838258;81;21101;-83
2022/04/14 03:00:38;;;;;;;40.23;27.07;;;;;;;7.78;84.32;100419.41;2895503;80;21003;-83
2022/04/14 03:04:39;;;;;;;37.33;26.90;;;;;;;7.73;84.46;100412.27;2862068;81;21050;-83
2022/04/14 03:08:41;;;;;;;37.75;28.30;;;;;;;7.70;84.19;100411.16;2913443;80;20991;-82
2022/04/14 03:12:47;;;;;;;38.65;28.70;;;;;;;7.70;83.92;100404.53;2840388;82;20985;-82
2022/04/14 03:16:48;;;;;;;42.07;25.13;;;;;;;7.75;83.38;100401.55;2894657;80;21022;-83
2022/04/14 03:20:49;;;;;;;38.20;26.73;;;;;;;7.69;83.31;100405.00;2852084;81;21045;-82
2022/04/14 03:24:50;;;;;;;41.08;25.27;;;;;;;7.69;83.17;100401.52;2900456;81;21016;-82
2022/04/14 03:28:51;;;;;;;34.95;24.37;;;;;;;7.78;82.52;100394.75;2860914;81;20975;-82
2022/04/14 03:32:52;;;;;;;34.08;23.92;;;;;;;7.99;81.31;100391.08;2910188;80;21018;-82
2022/04/14 03:36:53;;;;;;;38.95;27.75;;;;;;;8.03;80.50;100396.53;2866840;81;21030;-82
2022/04/14 03:40:55;;;;;;;42.40;26.45;;;;;;;7.99;80.57;100391.08;2826185;83;20977;-82
2022/04/14 03:44:57;;;;;;;34.35;25.50;;;;;;;7.95;80.45;100388.28;2862187;81;20979;-82
2022/04/14 03:48:58;;;;;;;35.55;24.77;;;;;;;7.78;80.97;100384.16;2904628;81;21628;-82
2022/04/14 03:53:00;;;;;;;36.28;23.65;;;;;;;7.67;81.53;100379.59;2906907;81;21073;-82
2022/04/14 03:57:02;;;;;;;37.98;26.73;;;;;;;7.64;81.43;100387.27;2910165;81;21050;-81
2022/04/14 04:01:03;;;;;;;43.55;27.15;;;;;;;7.62;81.67;100381.23;2884715;81;21674;-81
2022/04/14 04:05:06;;;;;;;38.60;25.50;;;;;;;7.55;82.32;100381.25;2911093;80;21593;-82
2022/04/14 04:09:08;;;;;;;33.73;24.77;;;;;;;7.45;82.81;100378.38;2946865;80;21022;-82
2022/04/14 04:13:09;;;;;;;45.23;28.90;;;;;;;7.46;83.14;100385.37;2916185;80;21041;-82
2022/04/14 04:17:10;;;;;;;39.38;27.37;;;;;;;7.54;82.68;100380.42;2917056;80;21487;-82
2022/04/14 04:21:11;;;;;;;44.77;31.55;;;;;;;7.65;82.10;100378.83;2892893;80;21011;-82
2022/04/14 04:25:12;;;;;;;42.93;30.20;;;;;;;7.75;81.45;100379.05;2870024;80;21075;-81
2022/04/14 04:29:13;;;;;;;42.27;28.95;;;;;;;7.97;80.38;100377.95;2852909;81;21305;-81
2022/04/14 04:33:14;;;;;;;32.42;24.75;;;;;;;8.13;79.63;100380.38;2867765;82;21034;-81
2022/04/14 04:37:15;;;;;;;43.90;28.83;;;;;;;8.33;79.05;100387.39;2870756;82;21588;-81
2022/04/14 04:41:16;;;;;;;36.17;27.87;;;;;;;8.57;78.71;100390.14;2884942;80;21598;-80
2022/04/14 04:45:17;;;;;;;38.95;25.85;;;;;;;8.89;78.04;100396.72;2936241;79;21340;-80
2022/04/14 04:49:19;;;;;;;44.15;31.17;;;;;;;9.14;77.29;100397.09;2938299;80;21034;-80
2022/04/14 04:53:20;;;;;;;44.30;31.07;;;;;;;9.47;76.87;100406.62;2942808;80;21117;-81
2022/04/14 04:57:21;;;;;;;38.33;29.72;;;;;;;9.78;75.55;100409.58;2889967;80;21638;-81
2022/04/14 05:01:22;;;;;;;34.23;28.27;;;;;;;9.93;74.72;100410.70;2922152;80;21010;-81
2022/04/14 05:05:25;;;;;;;44.88;29.85;;;;;;;10.04;74.93;100423.16;2876354;81;21053;-81
2022/04/14 05:09:26;;;;;;;38.13;29.98;;;;;;;10.23;74.42;100423.91;2890726;81;21014;-81
2022/04/14 05:13:27;;;;;;;32.30;25.37;;;;;;;10.34;72.91;100423.89;2903004;81;21058;-80
2022/04/14 05:17:29;;;;;;;36.75;26.00;;;;;;;10.48;72.66;100425.48;2915437;80;21022;-81
2022/04/14 05:21:30;;;;;;;40.60;27.37;;;;;;;10.57;72.84;100423.91;2931231;79;21026;-80
2022/04/14 05:25:31;;;;;;;35.92;26.12;;;;;;;10.65;72.87;100433.94;2878169;81;21030;-81
2022/04/14 05:29:35;;;;;;;30.92;25.20;;;;;;;10.75;72.62;100432.72;2870649;81;21051;-81
2022/04/14 05:33:35;;;;;;;33.75;23.98;;;;;;;10.89;73.04;100431.13;2920561;80;21454;-81
2022/04/14 05:37:37;;;;;;;34.50;24.45;;;;;;;11.14;72.45;100424.66;2916279;81;21022;-81
2022/04/14 05:41:38;;;;;;;37.28;26.20;;;;;;;11.42;72.07;100434.84;2899419;80;21447;-81
2022/04/14 05:45:40;;;;;;;46.65;30.55;;;;;;;11.78;71.47;100432.70;2924100;80;21045;-80
2022/04/14 05:49:41;;;;;;;39.20;27.42;;;;;;;12.12;71.36;100441.02;2903168;81;21050;-80
2022/04/14 05:53:42;;;;;;;44.10;33.35;;;;;;;12.25;70.26;100442.13;2900982;80;21604;-81
2022/04/14 05:57:43;;;;;;;46.60;30.10;;;;;;;12.48;70.84;100429.47;2869089;82;21052;-81
2022/04/14 06:01:46;;;;;;;35.17;29.15;;;;;;;12.76;69.99;100431.02;2925380;80;21339;-81
2022/04/14 06:05:47;;;;;;;48.87;30.75;;;;;;;12.78;68.85;100429.55;2914464;81;21026;-80
2022/04/14 06:09:48;;;;;;;44.55;30.82;;;;;;;12.81;69.67;100427.95;2943188;80;21033;-81
2022/04/14 06:13:49;;;;;;;41.15;33.18;;;;;;;12.92;70.36;100425.64;2903177;80;21165;-81
2022/04/14 06:17:51;;;;;;;42.23;31.02;;;;;;;13.00;69.82;100419.97;2958865;80;21053;-80
2022/04/14 06:21:52;;;;;;;45.80;32.00;;;;;;;13.06;70.45;100426.56;2968205;79;21036;-81
2022/04/14 06:25:54;;;;;;;42.45;30.02;;;;;;;13.12;70.17;100426.50;2967779;79;21019;-81
2022/04/14 06:29:55;;;;;;;45.67;32.20;;;;;;;13.29;67.79;100427.66;2937184;80;21069;-80
2022/04/14 06:33:56;;;;;;;43.70;33.15;;;;;;;13.55;67.89;100429.78;2841480;82;21022;-81
2022/04/14 06:37:58;;;;;;;45.28;30.68;;;;;;;13.63;66.97;100431.75;2876157;82;21354;-81
2022/04/14 06:42:00;;;;;;;43.00;31.60;;;;;;;13.67;67.35;100426.47;2909463;80;20963;-81
2022/04/14 06:46:03;;;;;;;43.80;31.60;;;;;;;13.50;68.47;100430.20;2841701;83;21034;-80
2022/04/14 06:50:04;;;;;;;43.02;34.23;;;;;;;13.42;69.60;100428.20;2797443;83;21037;-81
2022/04/14 06:54:06;;;;;;;44.13;34.60;;;;;;;13.62;70.55;100424.72;2869397;82;21046;-80
2022/04/14 06:58:07;;;;;;;48.68;34.33;;;;;;;13.84;70.36;100429.75;2870316;81;21557;-81
2022/04/14 07:02:08;;;;;;;41.63;32.35;;;;;;;14.20;69.81;100426.91;2875162;81;21605;-81
2022/04/14 07:06:09;;;;;;;46.37;34.03;;;;;;;14.47;70.74;100434.14;2858597;82;21010;-81
2022/04/14 07:10:12;;;;;;;42.05;34.63;;;;;;;14.62;71.17;100422.91;2868437;82;21093;-81
2022/04/14 07:14:17;;;;;;;45.55;34.08;;;;;;;14.91;70.72;100427.31;2874416;81;21046;-80
2022/04/14 07:18:18;;;;;;;51.18;32.23;;;;;;;15.20;70.19;100424.42;2873882;82;21070;-80
2022/04/14 07:22:20;;;;;;;41.25;29.42;;;;;;;15.64;67.59;100429.48;2896379;81;21482;-81
2022/04/14 07:26:21;;;;;;;38.73;29.30;;;;;;;16.02;67.86;100432.80;2872478;81;21542;-81
2022/04/14 07:30:26;;;;;;;46.18;27.32;;;;;;;16.38;66.06;100431.33;2862154;82;21050;-80
2022/04/14 07:34:27;;;;;;;41.48;26.97;;;;;;;16.75;64.77;100429.80;2866497;81;21093;-81
2022/04/14 07:38:29;;;;;;;36.55;25.45;;;;;;;17.08;65.26;100433.44;2872919;81;21042;-81
2022/04/14 07:42:32;;;;;;;34.65;25.02;;;;;;;17.44;63.76;100422.88;2894989;81;21017;-81
2022/04/14 07:46:37;;;;;;;32.53;25.77;;;;;;;17.71;61.21;100422.23;2876256;81;21078;-80
2022/04/14 07:50:37;;;;;;;33.35;23.62;;;;;;;18.05;62.61;100425.73;2831583;81;21034;-81
2022/04/14 07:54:38;;;;;;;36.98;24.07;;;;;;;18.48;62.50;100414.14;2876128;81;22427;-81
2022/04/14 07:58:39;;;;;;;35.25;23.92;;;;;;;18.94;61.29;100411.20;2889075;82;21059;-81
2022/04/14 08:02:53;;;;;;;29.50;22.85;;;;;;;19.09;59.16;100404.07;2934708;80;20983;-81
2022/04/14 08:06:54;;;;;;;28.23;21.62;;;;;;;19.36;59.80;100405.91;2838643;82;21003;-81
2022/04/14 08:11:01;;;;;;;28.00;21.75;;;;;;;19.70;59.93;100403.23;2845727;81;21713;-80
2022/04/14 08:14:58;;;;;;;29.67;21.20;;;;;;;19.97;58.59;100400.14;2856777;82;21038;-81
2022/04/14 08:19:00;;;;;;;26.85;20.20;;;;;;;20.19;57.70;100406.49;2871044;80;21058;-80
2022/04/14 08:23:03;;;;;;;22.52;19.10;;;;;;;20.36;58.21;100404.42;2864345;81;30558;-80
2022/04/14 08:27:04;;;;;;;20.02;16.42;;;;;;;20.73;56.84;100403.63;2868581;82;21546;-80
2022/04/14 08:31:05;;;;;;;21.93;17.05;;;;;;;20.82;54.49;100406.05;2893223;81;21070;-81
2022/04/14 08:35:08;;;;;;;20.50;15.72;;;;;;;21.19;54.69;100407.89;2856221;82;21034;-81
2022/04/14 08:39:09;;;;;;;14.90;10.68;;;;;;;21.29;53.05;100400.28;2892397;81;20969;-81
2022/04/14 08:43:10;;;;;;;19.75;12.85;;;;;;;21.48;51.40;100392.03;2916761;80;21021;-81
2022/04/14 08:47:13;;;;;;;30.50;24.50;;;;;;;21.60;50.13;100391.48;2945073;80;21033;-81
2022/04/14 08:51:14;;;;;;;21.30;14.90;;;;;;;21.87;51.14;100392.55;2875952;81;21019;-81
2022/04/14 08:55:16;;;;;;;14.35;11.45;;;;;;;21.99;49.21;100391.47;2905292;80;21004;-81
2022/04/14 08:59:18;;;;;;;20.45;15.93;;;;;;;22.12;46.97;100385.33;2893518;80;21122;-81
2022/04/14 09:03:20;;;;;;;17.40;12.33;;;;;;;22.24;48.49;100384.23;2942140;80;21025;-81
2022/04/14 09:07:21;;;;;;;10.82;9.40;;;;;;;22.24;45.96;100384.23;2910748;80;21271;-81
2022/04/14 09:11:22;;;;;;;14.10;11.28;;;;;;;22.24;44.69;100385.59;2910118;80;21534;-81
2022/04/14 09:15:24;;;;;;;22.05;12.55;;;;;;;22.31;46.74;100376.97;2869743;81;21035;-80
2022/04/14 09:19:30;;;;;;;14.28;9.80;;;;;;;22.17;46.16;100383.34;2867513;81;21026;-80
2022/04/14 09:23:31;;;;;;;18.75;12.05;;;;;;;22.17;46.29;100380.64;2873130;81;21032;-80
2022/04/14 09:27:37;;;;;;;17.48;10.23;;;;;;;22.24;45.27;100377.46;2908894;81;21289;-81
2022/04/14 09:31:51;;;;;;;15.05;9.73;;;;;;;22.29;44.04;100379.05;2822923;82;21055;-82
2022/04/14 09:36:08;;;;;;;20.88;11.28;;;;;;;22.35;44.71;100377.41;2902970;80;21088;-81
2022/04/14 09:40:11;;;;;;;17.40;11.45;;;;;;;22.40;45.44;100374.41;2849851;82;21038;-81
2022/04/14 09:44:14;;;;;;;23.62;13.00;;;;;;;22.49;46.14;100375.08;2843077;83;21039;-81
2022/04/14 09:48:18;;;;;;;19.77;12.47;;;;;;;22.61;45.04;100369.94;2891089;82;21020;-81
2022/04/14 09:52:18;;;;;;;19.85;13.72;;;;;;;22.64;44.96;100364.61;2868022;80;21062;-81
2022/04/14 09:56:20;;;;;;;20.57;12.82;;;;;;;22.75;46.97;100355.89;2886697;82;20983;-81
2022/04/14 10:00:41;;;;;;;39.80;25.35;;;;;;;22.66;46.62;100357.10;2917408;80;21669;-81
2022/04/14 10:04:47;;;;;;;17.77;12.73;;;;;;;22.76;45.20;100352.64;2927985;80;21061;-80
2022/04/14 10:08:51;;;;;;;18.80;12.15;;;;;;;22.94;47.87;100351.53;2824049;81;21042;-81
2022/04/14 10:13:05;;;;;;;15.58;10.35;;;;;;;23.08;43.35;100350.20;2844321;83;21023;-81
2022/04/14 10:17:10;;;;;;;17.40;10.60;;;;;;;22.97;43.07;100355.19;2885707;82;21031;-80
2022/04/14 10:21:14;;;;;;;16.23;11.80;;;;;;;23.06;42.12;100345.52;2897407;81;21029;-81
2022/04/14 10:25:16;;;;;;;16.37;10.68;;;;;;;23.19;43.82;100346.89;2875172;80;21028;-80
2022/04/14 10:29:19;;;;;;;19.23;12.10;;;;;;;23.21;43.33;100342.08;2893314;81;21028;-81
2022/04/14 10:33:20;;;;;;;16.65;11.43;;;;;;;23.38;42.23;100338.45;2859552;83;21008;-80
2022/04/14 10:37:44;;;;;;;16.57;10.08;;;;;;;23.45;41.11;100333.02;2854997;83;21020;-81
2022/04/14 10:41:50;;;;;;;14.58;9.63;;;;;;;23.56;41.56;100332.91;2888075;81;20989;-81
2022/04/14 10:45:56;;;;;;;22.13;12.28;;;;;;;23.70;39.80;100332.35;2883579;81;21046;-80
2022/04/14 10:49:58;;;;;;;15.75;10.75;;;;;;;23.81;40.60;100326.79;2861948;81;21029;-81
2022/04/14 10:54:10;;;;;;;16.87;10.18;;;;;;;23.88;39.65;100331.70;2897831;81;21006;-81
2022/04/14 10:58:41;;;;;;;13.38;9.20;;;;;;;23.86;42.90;100326.98;2868982;81;20981;-81
2022/04/14 11:03:11;;;;;;;18.12;9.88;;;;;;;24.04;40.74;100329.06;2800660;83;21030;-81
2022/04/14 11:07:23;;;;;;;13.88;9.80;;;;;;;24.01;40.92;100318.59;2818455;83;21022;-81
2022/04/14 11:11:24;;;;;;;14.85;10.58;;;;;;;24.07;41.39;100327.78;2813141;83;21002;-81
2022/04/14 11:15:31;;;;;;;13.95;10.45;;;;;;;24.27;41.33;100325.51;2833488;82;20982;-81
2022/04/14 11:19:32;;;;;;;22.70;13.93;;;;;;;24.37;41.81;100327.25;2821151;83;21106;-81
2022/04/14 11:23:35;;;;;;;14.53;9.90;;;;;;;24.44;39.93;100321.79;2887920;81;20966;-81
2022/04/14 11:27:36;;;;;;;11.20;9.00;;;;;;;24.55;39.29;100321.08;2835912;83;21064;-81
2022/04/14 11:31:45;;;;;;;15.85;9.30;;;;;;;24.53;39.57;100314.52;2818316;82;21079;-81
2022/04/14 11:35:47;;;;;;;13.68;9.50;;;;;;;24.60;39.69;100313.64;2846089;81;21018;-81
2022/04/14 11:40:23;;;;;;;16.97;11.28;;;;;;;24.65;39.93;100314.66;2873345;81;21307;-81
2022/04/14 11:44:32;;;;;;;13.78;9.15;;;;;;;24.74;40.32;100314.38;2854221;83;21022;-81
2022/04/14 11:48:35;;;;;;;10.93;7.67;;;;;;;24.75;40.64;100315.56;2847298;83;21050;-81
2022/04/14 11:52:38;;;;;;;11.97;7.72;;;;;;;24.88;39.58;100314.64;2897297;80;21034;-80
2022/04/14 11:56:40;;;;;;;11.40;8.33;;;;;;;25.03;40.00;100306.15;2888103;80;21601;-81
2022/04/14 12:00:44;;;;;;;10.00;7.47;;;;;;;25.02;39.67;100307.75;2864729;82;21018;-81
2022/04/14 12:04:49;;;;;;;11.70;8.00;;;;;;;25.18;39.72;100301.75;2866132;82;21030;-81
2022/04/14 12:08:56;;;;;;;20.90;8.45;;;;;;;25.04;39.28;100299.65;2872600;81;21069;-81
2022/04/14 12:13:06;;;;;;;11.18;7.72;;;;;;;25.05;39.00;100287.70;2869197;82;21029;-81
2022/04/14 12:17:08;;;;;;;9.63;8.30;;;;;;;25.14;38.92;100292.34;2871612;82;21439;-81
2022/04/14 12:21:22;;;;;;;8.48;7.05;;;;;;;25.13;39.61;100292.04;2871453;82;20991;-81
2022/04/14 12:25:24;;;;;;;10.53;7.47;;;;;;;25.11;38.18;100288.71;2872638;82;20963;-81
2022/04/14 12:29:28;;;;;;;11.60;6.72;;;;;;;25.14;41.28;100286.09;2853604;82;21393;-80
2022/04/14 12:33:30;;;;;;;9.98;7.12;;;;;;;25.09;40.94;100278.06;2835216;84;21077;-81
2022/04/14 12:37:36;;;;;;;10.98;8.43;;;;;;;24.97;38.44;100272.22;2830618;82;21108;-81
2022/04/14 12:41:38;;;;;;;11.73;7.95;;;;;;;25.05;39.24;100273.28;2829504;82;21387;-81
2022/04/14 12:45:40;;;;;;;13.28;8.83;;;;;;;25.14;39.41;100265.13;2844516;82;21006;-81
2022/04/14 12:49:42;;;;;;;20.62;6.90;;;;;;;25.22;39.47;100263.50;2832614;83;21070;-81
2022/04/14 12:53:49;;;;;;;16.07;8.20;;;;;;;25.23;38.78;100267.89;2836633;82;21047;-81
2022/04/14 12:57:55;;;;;;;13.50;9.05;;;;;;;25.34;38.89;100251.86;2834653;82;21381;-81
2022/04/14 13:02:00;;;;;;;10.63;7.53;;;;;;;25.40;38.49;100249.63;2833965;82;21016;-81
2022/04/14 13:06:07;;;;;;;13.03;8.18;;;;;;;25.61;38.48;100246.18;2832814;82;21085;-81
2022/04/14 13:10:08;;;;;;;12.75;7.58;;;;;;;25.78;40.08;100243.66;2834214;82;20991;-81
2022/04/14 13:14:23;;;;;;;10.75;6.30;;;;;;;25.63;40.59;100238.61;2837269;83;21052;-81
2022/04/14 13:18:24;;;;;;;12.18;6.67;;;;;;;25.41;38.80;100240.91;2827052;82;21005;-82
2022/04/14 13:22:25;;;;;;;13.72;8.25;;;;;;;25.36;42.13;100236.16;2831487;82;21101;-82
2022/04/14 13:26:26;;;;;;;10.45;7.00;;;;;;;25.44;41.71;100235.85;2808041;84;21005;-81
2022/04/14 13:30:28;;;;;;;10.43;7.03;;;;;;;25.45;42.21;100233.95;2818609;83;21069;-82
2022/04/14 13:34:29;;;;;;;9.95;6.37;;;;;;;25.39;41.81;100243.87;2856870;81;21089;-82
2022/04/14 13:38:30;;;;;;;17.90;5.85;;;;;;;25.33;42.37;100243.39;2860658;82;20999;-86
2022/04/14 13:42:33;;;;;;;10.90;7.28;;;;;;;25.44;44.04;100236.36;2858145;81;21011;-82
2022/04/14 13:46:34;;;;;;;8.68;6.87;;;;;;;25.36;44.01;100238.88;2859896;82;21030;-83
2022/04/14 13:50:37;;;;;;;10.63;7.70;;;;;;;25.24;42.04;100234.17;2860295;82;21035;-83
2022/04/14 13:54:38;;;;;;;9.23;6.35;;;;;;;25.29;41.02;100235.38;2859626;82;21057;-82
2022/04/14 13:58:39;;;;;;;11.63;5.70;;;;;;;25.28;43.84;100235.08;2858114;82;21077;-82
2022/04/14 14:02:40;;;;;;;11.88;6.22;;;;;;;25.17;42.55;100238.01;2862052;82;21006;-82
2022/04/14 14:06:42;;;;;;;12.53;7.03;;;;;;;24.99;45.89;100244.25;2851865;83;20999;-82
2022/04/14 14:10:43;;;;;;;9.83;5.80;;;;;;;24.86;44.95;100232.42;2856411;82;21057;-82
2022/04/14 14:14:44;;;;;;;17.50;7.95;;;;;;;24.75;45.83;100235.34;2855393;82;21284;-83
2022/04/14 14:18:45;;;;;;;14.45;6.10;;;;;;;24.58;45.79;100233.66;2859348;82;21007;-82
2022/04/14 14:22:47;;;;;;;11.10;6.25;;;;;;;24.54;44.99;100233.77;2818368;83;21026;-82
2022/04/14 14:26:49;;;;;;;9.35;6.78;;;;;;;24.54;46.09;100226.98;2843576;83;21053;-82
2022/04/14 14:30:50;;;;;;;12.78;5.75;;;;;;;24.54;46.34;100225.62;2863942;81;20984;-82
2022/04/14 14:34:52;;;;;;;42.67;9.80;;;;;;;24.66;45.33;100223.02;2893365;80;20999;-82
2022/04/14 14:38:54;;;;;;;9.80;5.45;;;;;;;24.81;47.90;100222.74;2866800;81;21031;-82
2022/04/14 14:42:55;;;;;;;15.72;6.47;;;;;;;24.99;46.50;100218.41;2894413;81;21046;-82
2022/04/14 14:46:57;;;;;;;25.50;8.18;;;;;;;25.11;46.28;100222.04;2901944;80;20963;-82
2022/04/14 14:50:58;;;;;;;15.08;6.97;;;;;;;25.13;47.22;100214.48;2890267;81;21047;-82
2022/04/14 14:54:59;;;;;;;7.80;5.40;;;;;;;25.10;46.39;100219.02;2930934;80;21012;-82
2022/04/14 14:59:12;;;;;;;9.30;5.25;;;;;;;25.04;47.56;100213.13;2904934;80;21105;-82
2022/04/14 15:03:13;;;;;;;6.37;5.37;;;;;;;24.93;46.34;100216.05;2922013;80;21010;-82
2022/04/14 15:07:15;;;;;;;39.90;9.10;;;;;;;24.87;48.36;100225.11;2857663;81;21022;-82
2022/04/14 15:11:16;;;;;;;494.67;94.28;;;;;;;24.64;50.20;100219.17;2896063;81;21053;-82
2022/04/14 15:15:25;;;;;;;9.98;5.20;;;;;;;24.29;51.43;100230.49;2869408;81;21323;-82
2022/04/14 15:19:21;;;;;;;5.40;4.90;;;;;;;24.07;50.69;100219.95;2856947;82;20975;-82
2022/04/14 15:23:22;;;;;;;4.75;4.30;;;;;;;23.89;50.66;100227.95;2876117;82;21038;-82
2022/04/14 15:27:23;;;;;;;7.78;4.40;;;;;;;23.62;49.00;100232.14;2876077;81;21041;-82
2022/04/14 15:31:24;;;;;;;6.75;4.45;;;;;;;23.34;51.03;100228.66;2853031;82;21066;-82
2022/04/14 15:35:27;;;;;;;10.18;5.65;;;;;;;23.13;51.97;100234.30;2847988;82;21007;-82
2022/04/14 15:39:28;;;;;;;7.08;4.58;;;;;;;22.90;52.32;100237.73;2836061;82;21057;-82
2022/04/14 15:43:30;;;;;;;10.10;5.92;;;;;;;22.74;53.24;100240.34;2836197;82;21024;-82
2022/04/14 15:47:31;;;;;;;8.58;5.33;;;;;;;22.65;53.33;100246.49;2832134;82;21031;-82
2022/04/14 15:51:36;;;;;;;5.78;4.72;;;;;;;22.34;54.37;100253.27;2835936;82;21034;-82
2022/04/14 15:55:37;;;;;;;9.63;5.22;;;;;;;22.20;53.08;100258.33;2846900;82;21082;-82
2022/04/14 15:59:40;;;;;;;6.30;4.17;;;;;;;22.11;56.15;100260.41;2834527;82;21101;-82
2022/04/14 16:03:41;;;;;;;7.15;6.05;;;;;;;21.92;57.61;100269.61;2878986;81;21091;-82
2022/04/14 16:07:43;;;;;;;10.95;7.50;;;;;;;21.66;52.39;100271.66;2856361;82;21028;-82
2022/04/14 16:12:02;;;;;;;10.32;7.22;;;;;;;21.34;54.35;100276.61;2811673;83;21122;-81
2022/04/14 16:16:04;;;;;;;16.25;9.60;;;;;;;21.21;55.67;100280.87;2814852;83;21010;-82
2022/04/14 16:20:07;;;;;;;9.83;8.08;;;;;;;21.01;55.26;100292.05;2833677;82;20980;-82
2022/04/14 16:24:11;;;;;;;11.88;8.40;;;;;;;20.73;54.59;100291.47;2811138;83;20987;-82
2022/04/14 16:28:12;;;;;;;14.60;9.50;;;;;;;20.69;55.65;100299.11;2831019;83;20987;-82
2022/04/14 16:32:13;;;;;;;10.68;8.68;;;;;;;20.43;55.05;100307.76;2848095;82;21023;-83
2022/04/14 16:36:14;;;;;;;9.60;7.97;;;;;;;20.32;54.83;100314.00;2847509;82;20979;-83
2022/04/14 16:40:16;;;;;;;9.75;7.00;;;;;;;20.23;55.29;100309.22;2890322;80;20988;-83
2022/04/14 16:44:17;;;;;;;10.43;8.30;;;;;;;20.12;54.77;100315.09;2900892;81;21570;-82
2022/04/14 16:48:18;;;;;;;9.35;7.78;;;;;;;20.05;56.54;100319.08;2850231;82;21030;-82
2022/04/14 16:52:20;;;;;;;11.90;8.20;;;;;;;19.92;56.70;100324.28;2892051;80;21086;-82
2022/04/14 16:56:21;;;;;;;9.93;8.03;;;;;;;19.79;57.16;100331.13;2845947;82;21080;-82
2022/04/14 17:00:22;;;;;;;10.88;8.45;;;;;;;19.62;57.04;100332.33;2883977;80;21031;-82
2022/04/14 17:04:24;;;;;;;8.60;7.67;;;;;;;19.54;57.90;100325.15;2869102;80;21046;-82
2022/04/14 17:08:25;;;;;;;9.63;8.05;;;;;;;19.41;57.97;100334.73;2882292;80;20984;-83
2022/04/14 17:12:26;;;;;;;9.80;7.92;;;;;;;19.28;57.58;100333.15;2882153;82;21037;-85
2022/04/14 17:16:27;;;;;;;9.98;8.95;;;;;;;19.21;58.22;100340.30;2861346;81;21074;-89
2022/04/14 17:20:29;;;;;;;13.85;8.68;;;;;;;19.18;58.36;100346.89;2869331;82;21018;-90
2022/04/14 17:24:30;;;;;;;12.33;9.10;;;;;;;19.10;59.41;100341.57;2865886;81;21014;-89
2022/04/14 17:28:31;;;;;;;12.40;9.38;;;;;;;18.94;59.43;100343.33;2870686;81;21633;-84
2022/04/14 17:32:32;;;;;;;17.48;9.93;;;;;;;18.93;60.41;100348.40;2853430;83;21053;-83
2022/04/14 17:36:35;;;;;;;14.63;10.93;;;;;;;18.82;59.70;100356.39;2855553;83;21051;-83
2022/04/14 17:40:36;;;;;;;13.43;11.33;;;;;;;18.79;58.03;100370.72;2855923;83;21016;-87
2022/04/14 17:44:38;;;;;;;15.25;12.68;;;;;;;18.90;57.52;100386.49;2858906;81;21126;-82
2022/04/14 17:48:39;;;;;;;19.02;14.30;;;;;;;18.93;56.99;100385.27;2848903;81;21760;-82
2022/04/14 17:52:40;;;;;;;19.23;13.72;;;;;;;18.96;56.51;100396.55;2858712;83;20983;-82
2022/04/14 17:56:42;;;;;;;22.50;15.93;;;;;;;18.93;56.69;100396.05;2860741;83;21018;-82
2022/04/14 18:00:43;;;;;;;15.15;11.25;;;;;;;18.85;56.93;100398.29;2860549;83;21066;-82
2022/04/14 18:04:44;;;;;;;25.40;14.70;;;;;;;18.76;57.30;100403.41;2859970;83;20995;-83
2022/04/14 18:08:45;;;;;;;17.02;14.60;;;;;;;18.67;57.67;100406.16;2838406;83;21066;-83
2022/04/14 18:12:46;;;;;;;20.77;15.32;;;;;;;18.60;58.42;100425.38;2859819;83;21046;-82
2022/04/14 18:16:50;;;;;;;17.40;13.85;;;;;;;18.40;59.41;100438.43;2875460;81;21007;-83
2022/04/14 18:20:53;;;;;;;18.10;14.90;;;;;;;18.22;59.36;100437.29;2866640;81;21467;-82
2022/04/14 18:24:55;;;;;;;20.82;16.52;;;;;;;18.07;59.61;100444.72;2851344;80;21037;-79
2022/04/14 18:28:56;;;;;;;17.85;15.53;;;;;;;18.00;60.50;100442.35;2866264;81;21081;-79
2022/04/14 18:32:58;;;;;;;23.92;13.60;;;;;;;17.97;60.37;100433.28;2862371;82;22442;-80